Nearby METAR Reports

 

LBGO - Gorna Oryahovista, Bulgaria
Distance from station: NE 50km
Updated: 20/06/2018 23:00
Clear
Clear
 Wind from NW
Wind: NW 7 km/h
Temperature: 22°C
Dew Point: 19°C
Humidity: 83%
Barometer: 1018 hPa
Clouds: Clear
Visibility: 10 km
2018/06/20 20:00 LBGO 202000Z AUTO 32004KT 9999 NCD 22/19 Q1018